Pacific Titan — WCZ6844 — position and weather

sailwx.info

Track history (hours):
 
Tides and Currents Weather Stations Pressure Air Temp Water Temp Dewpoint Dewpoint Depression Visibility Wind Speed Wind Dir Waves Ship Positions

Pacific Titan

Owner: WESTERN TOWBOAT CO, SEATTLE, WA. More information available from US FCC via Universal Licensing System and Coast Guard Vessel Documentation Center.

Last reported at 2014-Dec-17 13:33 UTC. Time now 2014-Dec-22 19:31 UTC.
Position N 47°40' W 122°23'.

Type: Tow > 200 m length. MMSI: 338855000.

Date/timePositionNaut miles runAvg speedWind from/ knotsBaromVisibWave heightAir tempDewpointWater temp
2014-Dec-17 13:33N 47°40' W 122°23'2 2.1
2014-Dec-17 12:33N 47°41' W 122°25'6 5.7
2014-Dec-17 11:33N 47°35' W 122°22'1 0.8
2014-Dec-17 10:33N 47°36' W 122°23'9 8.9
2014-Dec-17 09:33N 47°44' W 122°27'1010.2
2014-Dec-17 08:33N 47°54' W 122°30'1010.5
2014-Dec-17 07:33N 48°03' W 122°39'1110.9
2014-Dec-17 06:33N 48°12' W 122°48'10 9.9
2014-Dec-17 05:33N 48°22' W 122°46'1010.2
2014-Dec-17 04:33N 48°32' W 122°45'1010.4
2014-Dec-17 03:33N 48°43' W 122°45'1110.6
2014-Dec-17 02:33N 48°49' W 122°58'1110.8
2014-Dec-17 01:33N 48°56' W 123°11'1010.4
2014-Dec-17 00:33N 49°03' W 123°23'1010.3
2014-Dec-16 23:33N 49°10' W 123°34'10 9.8
2014-Dec-16 22:33N 49°18' W 123°44'9 8.6
2014-Dec-16 21:33N 49°23' W 123°54'10 9.8
2014-Dec-16 20:33N 49°28' W 124°07'10 9.8
2014-Dec-16 19:33N 49°33' W 124°20'10 9.3
2014-Dec-16 18:31N 49°38' W 124°32'1210.0
2014-Dec-16 17:20N 49°46' W 124°47'810.0
2014-Dec-16 16:32N 49°51' W 124°56'65 7.8
2014-Dec-16 08:08N 50°29' W 126°19'5 7.9
2014-Dec-16 07:28N 50°30' W 126°27'7 7.7
2014-Dec-16 06:31N 50°31' W 126°38'8 8.4
2014-Dec-16 05:33N 50°37' W 126°47'9 7.0
2014-Dec-16 04:19N 50°42' W 126°58'6 8.1
2014-Dec-16 03:31N 50°45' W 127°07'7 7.2
2014-Dec-16 02:33N 50°50' W 127°15'7 7.2
2014-Dec-16 01:33N 50°54' W 127°24'10 8.7
2014-Dec-16 00:26N 51°00' W 127°36'5 5.4
2014-Dec-15 23:33N 51°04' W 127°41'5 5.3
2014-Dec-15 22:34N 51°07' W 127°48'5 4.7
2014-Dec-15 21:29N 51°12' W 127°52'9 7.7
2014-Dec-15 20:22N 51°20' W 127°54'8 8.3
2014-Dec-15 19:24N 51°28' W 127°51'  
2014-Dec-13 02:28N 58°14' W 135°24'9 9.9
2014-Dec-13 01:33N 58°16' W 135°41'10 9.7
2014-Dec-13 00:33N 58°16' W 135°59'9 0.2
2014-Dec-11 10:30N 58°17' W 136°16'8 8.6
2014-Dec-11 09:33N 58°15' W 136°01'8 8.4
2014-Dec-11 08:33N 58°18' W 135°47'10 9.7
2014-Dec-11 07:33N 58°15' W 135°29'  
Track history (hours):
 
Tides and Currents Weather Stations Pressure Air Temp Water Temp Dewpoint Dewpoint Depression Visibility Wind Speed Wind Dir Waves Ship Positions

Pacific Titan

Owner: WESTERN TOWBOAT CO, SEATTLE, WA. More information available from US FCC via Universal Licensing System and Coast Guard Vessel Documentation Center.

Last reported at 2014-Dec-17 13:33 UTC. Time now 2014-Dec-22 19:31 UTC.
Position N 47°40' W 122°23'.

Type: Tow > 200 m length. MMSI: 338855000.

Date/timePositionNaut miles runAvg speedWind from/ knotsBaromVisibWave heightAir tempDewpointWater temp
2014-Dec-17 13:33N 47°40' W 122°23'2 2.1
2014-Dec-17 12:33N 47°41' W 122°25'6 5.7
2014-Dec-17 11:33N 47°35' W 122°22'1 0.8
2014-Dec-17 10:33N 47°36' W 122°23'9 8.9
2014-Dec-17 09:33N 47°44' W 122°27'1010.2
2014-Dec-17 08:33N 47°54' W 122°30'1010.5
2014-Dec-17 07:33N 48°03' W 122°39'1110.9
2014-Dec-17 06:33N 48°12' W 122°48'10 9.9
2014-Dec-17 05:33N 48°22' W 122°46'1010.2
2014-Dec-17 04:33N 48°32' W 122°45'1010.4
2014-Dec-17 03:33N 48°43' W 122°45'1110.6
2014-Dec-17 02:33N 48°49' W 122°58'1110.8
2014-Dec-17 01:33N 48°56' W 123°11'1010.4
2014-Dec-17 00:33N 49°03' W 123°23'1010.3
2014-Dec-16 23:33N 49°10' W 123°34'10 9.8
2014-Dec-16 22:33N 49°18' W 123°44'9 8.6
2014-Dec-16 21:33N 49°23' W 123°54'10 9.8
2014-Dec-16 20:33N 49°28' W 124°07'10 9.8
2014-Dec-16 19:33N 49°33' W 124°20'10 9.3
2014-Dec-16 18:31N 49°38' W 124°32'1210.0
2014-Dec-16 17:20N 49°46' W 124°47'810.0
2014-Dec-16 16:32N 49°51' W 124°56'65 7.8
2014-Dec-16 08:08N 50°29' W 126°19'5 7.9
2014-Dec-16 07:28N 50°30' W 126°27'7 7.7
2014-Dec-16 06:31N 50°31' W 126°38'8 8.4
2014-Dec-16 05:33N 50°37' W 126°47'9 7.0
2014-Dec-16 04:19N 50°42' W 126°58'6 8.1
2014-Dec-16 03:31N 50°45' W 127°07'7 7.2
2014-Dec-16 02:33N 50°50' W 127°15'7 7.2
2014-Dec-16 01:33N 50°54' W 127°24'10 8.7
2014-Dec-16 00:26N 51°00' W 127°36'5 5.4
2014-Dec-15 23:33N 51°04' W 127°41'5 5.3
2014-Dec-15 22:34N 51°07' W 127°48'5 4.7
2014-Dec-15 21:29N 51°12' W 127°52'9 7.7
2014-Dec-15 20:22N 51°20' W 127°54'8 8.3
2014-Dec-15 19:24N 51°28' W 127°51'  
2014-Dec-13 02:28N 58°14' W 135°24'9 9.9
2014-Dec-13 01:33N 58°16' W 135°41'10 9.7
2014-Dec-13 00:33N 58°16' W 135°59'9 0.2
2014-Dec-11 10:30N 58°17' W 136°16'8 8.6
2014-Dec-11 09:33N 58°15' W 136°01'8 8.4
2014-Dec-11 08:33N 58°18' W 135°47'10 9.7
2014-Dec-11 07:33N 58°15' W 135°29'  

Dump ship's entire track history